createdAt,value
2018-12-27T00:02:01.255Z,90.10
2018-12-27T00:04:31.710Z,90.10
2018-12-27T00:07:01.974Z,90.20
2018-12-27T00:09:32.616Z,90.10
2018-12-27T00:12:02.782Z,90.00
2018-12-27T00:14:33.458Z,90.00
2018-12-27T00:17:04.052Z,90.10
2018-12-27T00:19:34.335Z,90.00
2018-12-27T00:22:04.735Z,89.70
2018-12-27T00:24:53.650Z,89.80
2018-12-27T00:27:42.864Z,89.60
2018-12-27T00:30:13.394Z,89.30
2018-12-27T00:32:43.594Z,89.50
2018-12-27T00:35:14.238Z,89.70
2018-12-27T00:37:44.726Z,89.30
2018-12-27T00:40:15.204Z,89.00
2018-12-27T00:42:45.793Z,88.60
2018-12-27T00:45:16.047Z,89.30
2018-12-27T00:47:46.304Z,89.90
2018-12-27T00:50:16.884Z,90.20
2018-12-27T00:52:47.498Z,90.40
2018-12-27T00:55:18.174Z,90.70
2018-12-27T00:57:48.831Z,90.70
2018-12-27T01:00:19.398Z,90.50
2018-12-27T01:02:49.645Z,90.50
2018-12-27T01:05:19.943Z,90.50
2018-12-27T01:07:50.547Z,90.40
2018-12-27T01:10:21.205Z,90.40
2018-12-27T01:12:51.514Z,90.40
2018-12-27T01:15:22.106Z,90.40
2018-12-27T01:17:52.324Z,90.20
2018-12-27T01:20:22.896Z,90.00
2018-12-27T01:22:53.508Z,90.00
2018-12-27T01:25:24.104Z,90.10
2018-12-27T01:27:54.816Z,90.20
2018-12-27T01:30:24.985Z,90.50
2018-12-27T01:32:55.674Z,90.50
2018-12-27T01:35:26.313Z,90.40
2018-12-27T01:37:56.948Z,90.20
2018-12-27T01:40:27.582Z,90.30
2018-12-27T01:42:58.056Z,90.20
2018-12-27T01:45:28.586Z,90.20
2018-12-27T01:47:58.958Z,90.20
2018-12-27T01:50:29.124Z,90.40
2018-12-27T01:52:59.408Z,90.00
2018-12-27T01:55:30.114Z,89.90
2018-12-27T01:58:00.785Z,90.00
2018-12-27T02:00:31.451Z,90.00
2018-12-27T02:03:01.596Z,89.90
2018-12-27T02:05:32.179Z,89.30
2018-12-27T02:08:02.765Z,89.20
2018-12-27T02:10:33.536Z,89.20
2018-12-27T02:13:04.092Z,89.20
2018-12-27T02:15:34.636Z,89.20
2018-12-27T02:18:05.224Z,89.30
2018-12-27T02:20:35.765Z,89.20
2018-12-27T02:23:06.094Z,88.80
2018-12-27T02:25:36.368Z,89.20
2018-12-27T02:28:06.579Z,89.10
2018-12-27T02:30:37.255Z,89.00
2018-12-27T02:33:07.456Z,89.40
2018-12-27T02:35:37.982Z,89.50
2018-12-27T02:38:08.587Z,89.40
2018-12-27T02:40:38.865Z,89.30
2018-12-27T02:43:09.019Z,89.00
2018-12-27T02:45:39.250Z,89.10
2018-12-27T02:48:09.452Z,89.00
2018-12-27T02:50:40.008Z,89.10
2018-12-27T02:53:10.223Z,89.50
2018-12-27T02:55:40.510Z,89.80
2018-12-27T02:58:11.209Z,89.50
2018-12-27T03:00:41.849Z,90.00
2018-12-27T03:03:12.398Z,90.00
2018-12-27T03:05:42.779Z,90.00
2018-12-27T03:08:13.371Z,90.10
2018-12-27T03:10:43.882Z,89.70
2018-12-27T03:13:14.160Z,89.50
2018-12-27T03:15:44.748Z,89.50
2018-12-27T03:18:15.294Z,89.80
2018-12-27T03:20:45.576Z,90.00
2018-12-27T03:23:16.154Z,90.00
2018-12-27T03:25:46.759Z,90.10
2018-12-27T03:28:17.377Z,90.00
2018-12-27T03:31:06.310Z,90.10
2018-12-27T03:33:36.562Z,90.10
2018-12-27T03:36:06.787Z,90.00
2018-12-27T03:38:36.939Z,89.90
2018-12-27T03:41:07.010Z,89.90
2018-12-27T03:43:37.293Z,90.10
2018-12-27T03:46:07.817Z,90.10
2018-12-27T03:48:38.293Z,89.80
2018-12-27T03:51:08.859Z,90.20
2018-12-27T03:53:38.999Z,90.00
2018-12-27T03:56:09.663Z,89.90
2018-12-27T03:58:39.960Z,89.80
2018-12-27T04:01:10.589Z,89.70
2018-12-27T04:03:41.282Z,89.30
2018-12-27T04:06:11.764Z,89.70
2018-12-27T04:08:41.635Z,89.60
2018-12-27T04:11:12.273Z,90.00
2018-12-27T04:13:42.858Z,90.00
2018-12-27T04:16:12.919Z,90.00
2018-12-27T04:18:43.123Z,89.80
2018-12-27T04:21:13.045Z,89.20
2018-12-27T04:23:43.596Z,89.20
2018-12-27T04:26:14.603Z,89.30
2018-12-27T04:28:44.847Z,89.10
2018-12-27T04:31:15.487Z,89.30
2018-12-27T04:33:45.972Z,89.90
2018-12-27T04:36:16.755Z,89.80
2018-12-27T04:38:47.251Z,90.00
2018-12-27T04:41:17.511Z,90.00
2018-12-27T04:43:48.719Z,90.00
2018-12-27T04:46:19.082Z,90.00
2018-12-27T04:48:49.671Z,90.00
2018-12-27T04:51:19.955Z,90.00
2018-12-27T04:54:09.220Z,90.10
2018-12-27T04:56:39.951Z,90.10
2018-12-27T04:59:10.171Z,90.10
2018-12-27T05:01:40.362Z,90.10
2018-12-27T05:04:18.120Z,90.20
2018-12-27T05:06:43.348Z,90.10
2018-12-27T05:09:13.275Z,90.00
2018-12-27T05:11:43.491Z,90.10
2018-12-27T05:14:13.361Z,90.40
2018-12-27T05:16:44.084Z,90.00
2018-12-27T05:19:14.318Z,90.10
2018-12-27T05:21:44.529Z,90.00
2018-12-27T05:24:15.195Z,90.00
2018-12-27T05:26:45.357Z,90.00
2018-12-27T05:29:15.536Z,90.10
2018-12-27T05:31:46.050Z,90.00
2018-12-27T05:34:16.614Z,90.00
2018-12-27T05:36:46.816Z,90.00
2018-12-27T05:39:17.405Z,90.00
2018-12-27T05:41:47.979Z,90.00
2018-12-27T05:44:18.472Z,90.00
2018-12-27T05:46:48.737Z,90.00
2018-12-27T05:49:19.312Z,90.00
2018-12-27T05:51:50.011Z,90.00
2018-12-27T05:54:20.379Z,89.80
2018-12-27T05:56:51.020Z,90.00
2018-12-27T05:59:21.721Z,90.00
2018-12-27T06:01:52.283Z,89.80
2018-12-27T06:04:22.823Z,90.10
2018-12-27T06:06:53.115Z,90.20
2018-12-27T06:09:23.776Z,90.00
2018-12-27T06:11:54.377Z,90.00
2018-12-27T06:14:24.949Z,90.20
2018-12-27T06:16:55.173Z,90.50
2018-12-27T06:19:25.897Z,90.80
2018-12-27T06:21:56.426Z,90.60
2018-12-27T06:24:25.601Z,90.60
2018-12-27T06:26:56.251Z,90.50
2018-12-27T06:29:26.801Z,90.50
2018-12-27T06:31:56.947Z,90.60
2018-12-27T06:34:27.625Z,90.60
2018-12-27T06:36:57.099Z,90.50
2018-12-27T06:39:26.941Z,90.30
2018-12-27T06:41:59.377Z,90.40
2018-12-27T06:44:48.573Z,90.40
2018-12-27T06:47:19.109Z,90.30
2018-12-27T06:49:48.921Z,90.50
2018-12-27T06:52:19.075Z,90.50
2018-12-27T06:54:49.493Z,90.50
2018-12-27T06:57:20.338Z,90.60
2018-12-27T06:59:50.500Z,90.40
2018-12-27T07:02:20.798Z,90.40
2018-12-27T07:04:51.325Z,90.40
2018-12-27T07:07:21.622Z,90.50
2018-12-27T07:09:52.120Z,90.50
2018-12-27T07:12:22.673Z,90.50
2018-12-27T07:14:52.851Z,90.50
2018-12-27T07:17:23.079Z,90.40
2018-12-27T07:19:53.049Z,90.40
2018-12-27T07:22:23.550Z,90.40
2018-12-27T07:24:54.195Z,90.50
2018-12-27T07:27:43.165Z,90.40
2018-12-27T07:30:13.351Z,90.40
2018-12-27T07:32:43.647Z,90.40
2018-12-27T07:35:14.255Z,90.40
2018-12-27T07:37:44.747Z,90.60
2018-12-27T07:40:33.635Z,90.50
2018-12-27T07:43:04.265Z,90.60
2018-12-27T07:45:34.912Z,90.70
2018-12-27T07:48:05.436Z,90.80
2018-12-27T07:50:35.657Z,90.70
2018-12-27T07:53:07.077Z,90.60
2018-12-27T07:55:37.699Z,90.40
2018-12-27T07:58:08.313Z,90.50
2018-12-27T08:00:38.923Z,90.50
2018-12-27T08:03:08.515Z,90.40
2018-12-27T08:05:39.053Z,90.40
2018-12-27T08:08:09.381Z,90.50
2018-12-27T08:10:39.956Z,90.50
2018-12-27T08:13:09.825Z,90.60
2018-12-27T08:15:40.083Z,90.40
2018-12-27T08:18:10.637Z,90.60
2018-12-27T08:20:41.255Z,90.60
2018-12-27T08:23:11.537Z,90.70
2018-12-27T08:25:42.039Z,90.70
2018-12-27T08:28:11.483Z,90.60
2018-12-27T08:30:42.142Z,90.80
2018-12-27T08:33:12.689Z,90.50
2018-12-27T08:35:42.567Z,90.70
2018-12-27T08:38:12.607Z,90.80
2018-12-27T08:40:43.228Z,90.80
2018-12-27T08:43:13.532Z,90.70
2018-12-27T08:45:44.020Z,90.70
2018-12-27T08:48:14.593Z,90.70
2018-12-27T08:50:45.099Z,90.90
2018-12-27T08:53:15.767Z,90.80
2018-12-27T08:55:46.412Z,90.90
2018-12-27T08:58:16.229Z,90.90
2018-12-27T09:00:46.712Z,90.70
2018-12-27T09:03:17.360Z,90.60
2018-12-27T09:05:48.113Z,90.70
2018-12-27T09:08:18.881Z,90.70
2018-12-27T09:11:07.591Z,90.80
2018-12-27T09:13:38.189Z,91.00
2018-12-27T09:16:08.880Z,91.00
2018-12-27T09:18:39.529Z,90.80
2018-12-27T09:21:09.692Z,90.50
2018-12-27T09:23:40.382Z,90.60
2018-12-27T09:26:10.948Z,90.70
2018-12-27T09:28:41.163Z,90.70
2018-12-27T09:31:11.759Z,90.60
2018-12-27T09:33:42.243Z,90.70
2018-12-27T09:36:12.470Z,90.80
2018-12-27T09:38:42.736Z,91.00
2018-12-27T09:41:13.265Z,90.30
2018-12-27T09:43:43.603Z,90.60
2018-12-27T09:46:13.803Z,90.40
2018-12-27T09:48:44.456Z,90.20
2018-12-27T09:51:15.107Z,90.40
2018-12-27T09:53:44.993Z,90.50
2018-12-27T09:56:15.619Z,90.40
2018-12-27T09:58:46.494Z,90.40
2018-12-27T10:01:17.323Z,90.30
2018-12-27T10:03:47.836Z,90.40
2018-12-27T10:06:18.401Z,90.70
2018-12-27T10:08:48.969Z,90.80
2018-12-27T10:11:19.245Z,90.40
2018-12-27T10:13:49.723Z,90.50
2018-12-27T10:16:20.232Z,90.80
2018-12-27T10:18:50.841Z,90.50
2018-12-27T10:21:21.024Z,90.40
2018-12-27T10:23:51.298Z,90.50
2018-12-27T10:26:27.753Z,90.50
2018-12-27T10:28:58.438Z,90.50
2018-12-27T10:31:29.029Z,90.70
2018-12-27T10:33:59.574Z,90.80
2018-12-27T10:36:30.049Z,90.80
2018-12-27T10:39:06.271Z,90.00
2018-12-27T10:41:36.451Z,90.30
2018-12-27T10:44:08.950Z,90.50
2018-12-27T10:46:39.198Z,90.50
2018-12-27T10:49:09.683Z,90.70
2018-12-27T10:51:39.748Z,90.60
2018-12-27T10:54:09.933Z,90.50
2018-12-27T10:56:40.547Z,90.50
2018-12-27T10:59:12.853Z,90.50
2018-12-27T11:01:54.226Z,90.20
2018-12-27T11:04:26.824Z,90.10
2018-12-27T11:06:58.079Z,90.40
2018-12-27T11:09:28.595Z,90.60
2018-12-27T11:11:59.096Z,90.70
2018-12-27T11:14:29.354Z,90.70
2018-12-27T11:16:59.817Z,90.40
2018-12-27T11:19:29.906Z,90.50
2018-12-27T11:22:00.397Z,90.60
2018-12-27T11:24:31.066Z,90.60
2018-12-27T11:27:01.799Z,90.50
2018-12-27T11:29:32.273Z,90.50
2018-12-27T11:32:02.802Z,90.40
2018-12-27T11:34:33.256Z,90.40
2018-12-27T11:37:03.111Z,90.40
2018-12-27T11:39:33.760Z,90.30
2018-12-27T11:42:04.342Z,90.30
2018-12-27T11:44:34.962Z,90.30
2018-12-27T11:47:05.217Z,90.40
2018-12-27T11:49:35.832Z,90.70
2018-12-27T11:52:06.201Z,90.30
2018-12-27T11:54:36.843Z,90.50
2018-12-27T11:57:07.435Z,90.60
2018-12-27T11:59:38.060Z,90.60
2018-12-27T12:02:08.684Z,90.40
2018-12-27T12:04:43.204Z,90.40
2018-12-27T12:07:13.820Z,90.40
2018-12-27T12:09:44.393Z,90.40
2018-12-27T12:12:15.013Z,90.40
2018-12-27T12:14:45.601Z,90.40
2018-12-27T12:17:16.200Z,90.40
2018-12-27T12:19:46.744Z,90.40
2018-12-27T12:22:17.618Z,90.40
2018-12-27T12:24:47.253Z,90.30
2018-12-27T12:27:17.865Z,90.60
2018-12-27T12:29:48.318Z,90.50
2018-12-27T12:32:20.343Z,90.50
2018-12-27T12:34:50.172Z,90.40
2018-12-27T12:37:21.280Z,90.40
2018-12-27T12:39:51.852Z,90.50
2018-12-27T12:42:40.391Z,90.50
2018-12-27T12:45:11.891Z,90.50
2018-12-27T12:47:42.444Z,90.50
2018-12-27T12:50:12.652Z,90.70
2018-12-27T12:52:43.434Z,90.70
2018-12-27T12:55:13.828Z,90.40
2018-12-27T12:57:44.440Z,90.50
2018-12-27T13:00:14.759Z,90.80
2018-12-27T13:02:45.400Z,90.60
2018-12-27T13:05:15.653Z,90.50
2018-12-27T13:07:46.320Z,90.90
2018-12-27T13:10:16.633Z,90.60
2018-12-27T13:12:46.537Z,90.60
2018-12-27T13:15:16.870Z,90.70
2018-12-27T13:17:47.384Z,90.60
2018-12-27T13:20:17.948Z,90.80
2018-12-27T13:22:48.185Z,90.90
2018-12-27T13:25:18.664Z,90.90
2018-12-27T13:27:49.194Z,90.90
2018-12-27T13:30:19.497Z,91.00
2018-12-27T13:32:49.946Z,91.00
2018-12-27T13:35:20.481Z,90.90
2018-12-27T13:37:51.091Z,91.40
2018-12-27T13:40:21.550Z,91.00
2018-12-27T13:42:51.780Z,91.00
2018-12-27T13:45:22.047Z,91.10
2018-12-27T13:47:53.590Z,91.30
2018-12-27T13:50:23.764Z,91.20
2018-12-27T13:52:53.745Z,91.20
2018-12-27T13:55:24.322Z,91.40
2018-12-27T13:57:54.866Z,91.10
2018-12-27T14:00:25.440Z,91.10
2018-12-27T14:02:55.764Z,91.20
2018-12-27T14:05:25.986Z,91.20
2018-12-27T14:07:56.235Z,91.20
2018-12-27T14:10:26.790Z,91.30
2018-12-27T14:12:57.016Z,91.40
2018-12-27T14:15:27.390Z,91.40
2018-12-27T14:17:57.626Z,91.50
2018-12-27T14:20:27.720Z,91.50
2018-12-27T14:22:59.208Z,91.50
2018-12-27T14:25:30.474Z,91.60
2018-12-27T14:28:00.448Z,91.60
2018-12-27T14:30:30.669Z,91.60
2018-12-27T14:33:01.170Z,91.50
2018-12-27T14:35:31.788Z,91.60
2018-12-27T14:38:02.236Z,91.70
2018-12-27T14:40:32.765Z,91.70
2018-12-27T14:43:03.066Z,91.60
2018-12-27T14:45:33.692Z,91.70
2018-12-27T14:48:04.265Z,91.70
2018-12-27T14:50:34.555Z,91.70
2018-12-27T14:53:05.123Z,91.70
2018-12-27T14:55:35.402Z,91.70
2018-12-27T14:58:05.638Z,91.70
2018-12-27T15:00:35.879Z,91.70
2018-12-27T15:03:06.526Z,91.70
2018-12-27T15:05:37.059Z,91.70
2018-12-27T15:08:07.510Z,91.80
2018-12-27T15:10:37.872Z,91.80
2018-12-27T15:13:08.400Z,92.00
2018-12-27T15:15:38.928Z,91.90
2018-12-27T15:18:08.864Z,92.00
2018-12-27T15:20:39.438Z,92.00
2018-12-27T15:23:10.067Z,92.10
2018-12-27T15:25:40.529Z,92.10
2018-12-27T15:28:11.117Z,92.10
2018-12-27T15:30:41.728Z,92.00
2018-12-27T15:33:11.903Z,92.10
2018-12-27T15:35:42.542Z,91.90
2018-12-27T15:38:13.191Z,91.90
2018-12-27T15:40:43.117Z,92.00
2018-12-27T15:43:13.304Z,92.00
2018-12-27T15:45:43.608Z,92.00
2018-12-27T15:48:14.153Z,92.10
2018-12-27T15:50:44.603Z,92.00
2018-12-27T15:53:15.275Z,92.00
2018-12-27T15:55:45.086Z,92.00
2018-12-27T15:58:15.289Z,92.00
2018-12-27T16:00:45.654Z,92.20
2018-12-27T16:03:16.291Z,92.20
2018-12-27T16:05:46.616Z,92.20
2018-12-27T16:08:23.081Z,92.20
2018-12-27T16:10:53.647Z,92.20
2018-12-27T16:13:23.890Z,92.20
2018-12-27T16:15:53.894Z,92.10
2018-12-27T16:18:24.420Z,92.10
2018-12-27T16:20:54.542Z,92.00
2018-12-27T16:23:25.122Z,91.90
2018-12-27T16:25:55.026Z,91.90
2018-12-27T16:28:25.121Z,91.90
2018-12-27T16:30:57.036Z,92.00
2018-12-27T16:33:27.592Z,91.90
2018-12-27T16:35:57.760Z,91.90
2018-12-27T16:38:28.302Z,91.90
2018-12-27T16:40:58.867Z,92.00
2018-12-27T16:43:29.072Z,91.80
2018-12-27T16:45:59.408Z,91.90
2018-12-27T16:48:29.908Z,91.90
2018-12-27T16:51:00.435Z,91.90
2018-12-27T16:53:31.114Z,92.20
2018-12-27T16:56:01.275Z,92.20
2018-12-27T16:58:31.786Z,92.20
2018-12-27T17:01:02.371Z,92.30
2018-12-27T17:03:32.735Z,92.40
2018-12-27T17:06:03.323Z,92.40
2018-12-27T17:08:33.909Z,92.30
2018-12-27T17:11:04.646Z,92.40
2018-12-27T17:13:35.223Z,92.60
2018-12-27T17:16:05.756Z,92.60
2018-12-27T17:18:36.047Z,92.60
2018-12-27T17:21:06.367Z,92.60
2018-12-27T17:23:36.824Z,92.50
2018-12-27T17:26:07.402Z,92.40
2018-12-27T17:28:56.559Z,92.40
2018-12-27T17:31:26.961Z,92.30
2018-12-27T17:33:57.368Z,92.20
2018-12-27T17:36:27.817Z,92.40
2018-12-27T17:38:58.502Z,92.40
2018-12-27T17:41:28.669Z,92.40
2018-12-27T17:43:59.158Z,92.40
2018-12-27T17:46:29.371Z,92.20
2018-12-27T17:48:59.852Z,92.10
2018-12-27T17:51:30.459Z,91.90
2018-12-27T17:54:00.925Z,91.70
2018-12-27T17:56:31.304Z,91.20
2018-12-27T17:59:01.951Z,91.40
2018-12-27T18:01:32.435Z,91.20
2018-12-27T18:04:03.017Z,91.10
2018-12-27T18:06:33.633Z,91.00
2018-12-27T18:09:04.529Z,91.10
2018-12-27T18:11:34.855Z,91.30
2018-12-27T18:14:24.367Z,91.40
2018-12-27T18:16:55.128Z,91.70
2018-12-27T18:19:25.603Z,91.50
2018-12-27T18:21:55.869Z,91.50
2018-12-27T18:24:26.426Z,91.40
2018-12-27T18:26:56.197Z,91.70
2018-12-27T18:29:26.524Z,91.80
2018-12-27T18:31:57.232Z,92.10
2018-12-27T18:34:27.762Z,92.20
2018-12-27T18:36:58.435Z,91.90
2018-12-27T18:39:28.409Z,91.80
2018-12-27T18:42:01.587Z,92.10
2018-12-27T18:44:32.821Z,91.80
2018-12-27T18:47:04.063Z,91.80
2018-12-27T18:49:34.925Z,92.00
2018-12-27T18:52:24.350Z,91.90
2018-12-27T18:54:55.669Z,91.90
2018-12-27T18:57:26.791Z,91.60
2018-12-27T18:59:57.074Z,91.80
2018-12-27T19:02:27.709Z,91.60
2018-12-27T19:05:00.084Z,91.10
2018-12-27T19:07:33.634Z,91.70
2018-12-27T19:10:07.773Z,91.60
2018-12-27T19:13:09.690Z,91.70
2018-12-27T19:15:54.785Z,91.70
2018-12-27T19:18:43.079Z,91.70
2018-12-27T19:21:28.857Z,91.50
2018-12-27T19:23:59.602Z,91.40
2018-12-27T19:26:30.014Z,92.40
2018-12-27T19:29:00.496Z,92.60
2018-12-27T19:31:30.479Z,92.10
2018-12-27T19:34:01.083Z,92.00
2018-12-27T19:36:31.582Z,91.50
2018-12-27T19:39:01.923Z,91.40
2018-12-27T19:41:32.461Z,91.10
2018-12-27T19:44:02.939Z,91.70
2018-12-27T19:46:33.510Z,91.60
2018-12-27T19:49:04.126Z,91.60
2018-12-27T19:51:34.675Z,91.50
2018-12-27T19:54:05.122Z,91.40
2018-12-27T19:56:35.716Z,91.70
2018-12-27T19:59:06.074Z,91.70
2018-12-27T20:01:36.535Z,92.20
2018-12-27T20:04:07.245Z,92.20
2018-12-27T20:06:37.708Z,92.10
2018-12-27T20:09:08.183Z,91.70
2018-12-27T20:11:38.423Z,91.80
2018-12-27T20:14:08.916Z,92.00
2018-12-27T20:16:39.459Z,92.00
2018-12-27T20:19:10.032Z,92.00
2018-12-27T20:21:40.299Z,92.00
2018-12-27T20:24:10.577Z,91.70
2018-12-27T20:26:41.209Z,91.20
2018-12-27T20:29:11.799Z,91.30
2018-12-27T20:31:42.063Z,91.30
2018-12-27T20:34:12.714Z,91.50
2018-12-27T20:36:43.339Z,91.50
2018-12-27T20:39:32.704Z,91.70
2018-12-27T20:42:03.167Z,92.00
2018-12-27T20:44:33.341Z,91.90
2018-12-27T20:47:03.969Z,92.40
2018-12-27T20:49:34.460Z,92.10
2018-12-27T20:52:04.879Z,91.90
2018-12-27T20:54:35.165Z,91.90
2018-12-27T20:57:05.701Z,91.90
2018-12-27T20:59:36.233Z,92.30
2018-12-27T21:02:06.684Z,91.60
2018-12-27T21:04:36.987Z,91.70
2018-12-27T21:07:07.208Z,91.60
2018-12-27T21:09:37.857Z,91.40
2018-12-27T21:12:08.067Z,91.30
2018-12-27T21:14:38.654Z,91.20
2018-12-27T21:17:09.431Z,91.30
2018-12-27T21:19:40.033Z,91.10
2018-12-27T21:22:10.577Z,91.30
2018-12-27T21:24:41.165Z,91.60
2018-12-27T21:27:11.325Z,91.70
2018-12-27T21:29:41.667Z,91.40
2018-12-27T21:32:11.616Z,91.30
2018-12-27T21:34:42.095Z,91.30
2018-12-27T21:37:12.039Z,91.50
2018-12-27T21:39:42.733Z,91.30
2018-12-27T21:42:13.203Z,91.40
2018-12-27T21:44:43.757Z,91.50
2018-12-27T21:47:14.099Z,91.70
2018-12-27T21:49:44.421Z,91.70
2018-12-27T21:52:14.983Z,91.60
2018-12-27T21:54:45.693Z,91.50
2018-12-27T21:57:16.351Z,91.30
2018-12-27T21:59:46.916Z,91.20
2018-12-27T22:02:17.269Z,91.00
2018-12-27T22:04:47.479Z,91.20
2018-12-27T22:07:18.287Z,91.20
2018-12-27T22:09:48.872Z,91.30
2018-12-27T22:12:19.035Z,91.60
2018-12-27T22:14:49.323Z,91.70
2018-12-27T22:17:38.579Z,91.70
2018-12-27T22:20:08.883Z,92.00
2018-12-27T22:22:39.483Z,92.30
2018-12-27T22:25:10.171Z,92.10
2018-12-27T22:27:58.703Z,92.40
2018-12-27T22:30:29.425Z,92.30
2018-12-27T22:33:00.025Z,92.10
2018-12-27T22:35:30.555Z,92.10
2018-12-27T22:38:00.751Z,92.20
2018-12-27T22:40:30.925Z,92.20
2018-12-27T22:43:01.455Z,92.10
2018-12-27T22:45:31.781Z,92.20
2018-12-27T22:48:02.316Z,92.30
2018-12-27T22:50:32.815Z,92.60
2018-12-27T22:53:03.429Z,92.70
2018-12-27T22:55:33.953Z,92.70
2018-12-27T22:58:04.471Z,92.80
2018-12-27T23:00:38.957Z,92.90
2018-12-27T23:03:08.899Z,92.90
2018-12-27T23:05:39.561Z,93.00
2018-12-27T23:08:09.375Z,92.80
2018-12-27T23:10:39.704Z,92.80
2018-12-27T23:13:10.327Z,92.70
2018-12-27T23:15:40.847Z,92.70
2018-12-27T23:18:11.351Z,92.60
2018-12-27T23:20:41.734Z,92.50
2018-12-27T23:23:12.294Z,92.30
2018-12-27T23:25:42.851Z,92.10
2018-12-27T23:28:13.217Z,92.10
2018-12-27T23:30:43.865Z,92.10
2018-12-27T23:33:14.385Z,92.40
2018-12-27T23:35:44.979Z,92.10
2018-12-27T23:38:15.206Z,92.10
2018-12-27T23:40:45.779Z,92.10
2018-12-27T23:43:16.109Z,91.80
2018-12-27T23:45:46.589Z,92.00
2018-12-27T23:48:17.360Z,92.20
2018-12-27T23:50:47.541Z,92.30
2018-12-27T23:53:17.713Z,92.50
2018-12-27T23:55:48.008Z,92.50
2018-12-27T23:58:17.862Z,92.70
